sensor_id;sensor_type;location;lat;lon;timestamp;temperature;humidity
30973;DHT22;25423;45.624;13.790;2022-10-26T00:02:13;17.00;99.90
30973;DHT22;25423;45.624;13.790;2022-10-26T00:04:38;17.00;99.90
30973;DHT22;25423;45.624;13.790;2022-10-26T00:07:04;17.00;99.90
30973;DHT22;25423;45.624;13.790;2022-10-26T00:09:30;17.00;99.90
30973;DHT22;25423;45.624;13.790;2022-10-26T00:11:56;17.00;99.90
30973;DHT22;25423;45.624;13.790;2022-10-26T00:14:25;17.00;99.90
30973;DHT22;25423;45.624;13.790;2022-10-26T00:16:50;16.90;99.90
30973;DHT22;25423;45.624;13.790;2022-10-26T00:19:16;17.00;99.90
30973;DHT22;25423;45.624;13.790;2022-10-26T00:21:42;17.00;99.90
30973;DHT22;25423;45.624;13.790;2022-10-26T00:24:11;17.00;99.90
30973;DHT22;25423;45.624;13.790;2022-10-26T00:26:37;17.00;99.90
30973;DHT22;25423;45.624;13.790;2022-10-26T00:29:03;17.10;99.90
30973;DHT22;25423;45.624;13.790;2022-10-26T00:31:29;17.10;99.90
30973;DHT22;25423;45.624;13.790;2022-10-26T00:33:55;17.10;99.90
30973;DHT22;25423;45.624;13.790;2022-10-26T00:36:22;17.10;99.90
30973;DHT22;25423;45.624;13.790;2022-10-26T00:38:48;17.10;99.90
30973;DHT22;25423;45.624;13.790;2022-10-26T00:41:15;17.20;99.90
30973;DHT22;25423;45.624;13.790;2022-10-26T00:43:41;17.20;99.90
30973;DHT22;25423;45.624;13.790;2022-10-26T00:46:08;17.20;99.90
30973;DHT22;25423;45.624;13.790;2022-10-26T00:48:36;17.20;99.90
30973;DHT22;25423;45.624;13.790;2022-10-26T00:51:06;17.20;99.90
30973;DHT22;25423;45.624;13.790;2022-10-26T00:53:33;17.20;99.90
30973;DHT22;25423;45.624;13.790;2022-10-26T00:55:59;17.20;99.90
30973;DHT22;25423;45.624;13.790;2022-10-26T00:58:25;17.30;99.90
30973;DHT22;25423;45.624;13.790;2022-10-26T01:00:51;17.30;99.90
30973;DHT22;25423;45.624;13.790;2022-10-26T01:03:17;17.30;99.90
30973;DHT22;25423;45.624;13.790;2022-10-26T01:05:43;17.30;99.90
30973;DHT22;25423;45.624;13.790;2022-10-26T01:08:09;17.30;99.90
30973;DHT22;25423;45.624;13.790;2022-10-26T01:10:36;17.40;99.90
30973;DHT22;25423;45.624;13.790;2022-10-26T01:13:03;17.30;99.90
30973;DHT22;25423;45.624;13.790;2022-10-26T01:15:31;17.30;99.90
30973;DHT22;25423;45.624;13.790;2022-10-26T01:18:08;17.30;99.90
30973;DHT22;25423;45.624;13.790;2022-10-26T01:23:14;17.40;99.90
30973;DHT22;25423;45.624;13.790;2022-10-26T01:30:51;17.30;99.90
30973;DHT22;25423;45.624;13.790;2022-10-26T01:33:22;17.20;99.90
30973;DHT22;25423;45.624;13.790;2022-10-26T01:36:01;17.20;99.90
30973;DHT22;25423;45.624;13.790;2022-10-26T01:38:30;17.20;99.90
30973;DHT22;25423;45.624;13.790;2022-10-26T01:43:23;17.40;99.90
30973;DHT22;25423;45.624;13.790;2022-10-26T01:45:50;17.30;99.90
30973;DHT22;25423;45.624;13.790;2022-10-26T01:48:17;17.30;99.90
30973;DHT22;25423;45.624;13.790;2022-10-26T01:50:45;17.20;99.90
30973;DHT22;25423;45.624;13.790;2022-10-26T01:53:15;17.20;99.90
30973;DHT22;25423;45.624;13.790;2022-10-26T01:55:45;17.10;99.90
30973;DHT22;25423;45.624;13.790;2022-10-26T02:00:45;17.10;99.90
30973;DHT22;25423;45.624;13.790;2022-10-26T02:03:14;17.20;99.90
30973;DHT22;25423;45.624;13.790;2022-10-26T02:05:50;17.20;99.90
30973;DHT22;25423;45.624;13.790;2022-10-26T02:11:23;17.10;99.90
30973;DHT22;25423;45.624;13.790;2022-10-26T02:13:45;17.20;99.90
30973;DHT22;25423;45.624;13.790;2022-10-26T02:16:15;17.20;99.90
30973;DHT22;25423;45.624;13.790;2022-10-26T02:21:40;17.20;99.90
30973;DHT22;25423;45.624;13.790;2022-10-26T02:24:07;17.20;99.90
30973;DHT22;25423;45.624;13.790;2022-10-26T02:26:34;17.20;99.90
30973;DHT22;25423;45.624;13.790;2022-10-26T02:29:02;17.20;99.90
30973;DHT22;25423;45.624;13.790;2022-10-26T02:31:29;17.20;99.90
30973;DHT22;25423;45.624;13.790;2022-10-26T02:33:56;17.30;99.90
30973;DHT22;25423;45.624;13.790;2022-10-26T02:36:24;17.20;99.90
30973;DHT22;25423;45.624;13.790;2022-10-26T02:38:54;17.30;99.90
30973;DHT22;25423;45.624;13.790;2022-10-26T02:41:20;17.20;99.90
30973;DHT22;25423;45.624;13.790;2022-10-26T02:43:49;17.10;99.90
30973;DHT22;25423;45.624;13.790;2022-10-26T02:46:17;17.00;99.90
30973;DHT22;25423;45.624;13.790;2022-10-26T02:48:45;16.90;99.90
30973;DHT22;25423;45.624;13.790;2022-10-26T02:51:27;16.90;99.90
30973;DHT22;25423;45.624;13.790;2022-10-26T02:53:56;16.80;99.90
30973;DHT22;25423;45.624;13.790;2022-10-26T02:56:25;16.90;99.90
30973;DHT22;25423;45.624;13.790;2022-10-26T02:58:54;16.90;99.90
30973;DHT22;25423;45.624;13.790;2022-10-26T03:01:20;16.80;99.90
30973;DHT22;25423;45.624;13.790;2022-10-26T03:03:46;16.80;99.90
30973;DHT22;25423;45.624;13.790;2022-10-26T03:06:14;16.80;99.90
30973;DHT22;25423;45.624;13.790;2022-10-26T03:08:44;16.70;99.90
30973;DHT22;25423;45.624;13.790;2022-10-26T03:11:10;16.80;99.90
30973;DHT22;25423;45.624;13.790;2022-10-26T03:13:35;16.80;99.90
30973;DHT22;25423;45.624;13.790;2022-10-26T03:16:01;16.90;99.90
30973;DHT22;25423;45.624;13.790;2022-10-26T03:18:27;16.80;99.90
30973;DHT22;25423;45.624;13.790;2022-10-26T03:20:52;16.70;99.90
30973;DHT22;25423;45.624;13.790;2022-10-26T03:23:18;16.80;99.90
30973;DHT22;25423;45.624;13.790;2022-10-26T03:25:44;16.70;99.90
30973;DHT22;25423;45.624;13.790;2022-10-26T03:28:10;16.70;99.90
30973;DHT22;25423;45.624;13.790;2022-10-26T03:30:35;16.70;99.90
30973;DHT22;25423;45.624;13.790;2022-10-26T03:33:01;16.70;99.90
30973;DHT22;25423;45.624;13.790;2022-10-26T03:35:27;16.70;99.90
30973;DHT22;25423;45.624;13.790;2022-10-26T03:37:53;16.80;99.90
30973;DHT22;25423;45.624;13.790;2022-10-26T03:40:19;16.80;99.90
30973;DHT22;25423;45.624;13.790;2022-10-26T03:42:44;16.90;99.90
30973;DHT22;25423;45.624;13.790;2022-10-26T03:45:10;16.90;99.90
30973;DHT22;25423;45.624;13.790;2022-10-26T03:47:41;16.90;99.90
30973;DHT22;25423;45.624;13.790;2022-10-26T03:50:06;16.80;99.90
30973;DHT22;25423;45.624;13.790;2022-10-26T03:52:32;16.80;99.90
30973;DHT22;25423;45.624;13.790;2022-10-26T03:55:01;16.80;99.90
30973;DHT22;25423;45.624;13.790;2022-10-26T03:57:27;16.80;99.90
30973;DHT22;25423;45.624;13.790;2022-10-26T03:59:53;16.80;99.90
30973;DHT22;25423;45.624;13.790;2022-10-26T04:02:18;16.90;99.90
30973;DHT22;25423;45.624;13.790;2022-10-26T04:04:44;16.90;99.90
30973;DHT22;25423;45.624;13.790;2022-10-26T04:07:10;16.90;99.90
30973;DHT22;25423;45.624;13.790;2022-10-26T04:09:36;16.80;99.90
30973;DHT22;25423;45.624;13.790;2022-10-26T04:12:01;16.70;99.90
30973;DHT22;25423;45.624;13.790;2022-10-26T04:14:27;16.80;99.90
30973;DHT22;25423;45.624;13.790;2022-10-26T04:16:53;16.70;99.90
30973;DHT22;25423;45.624;13.790;2022-10-26T04:19:18;16.70;99.90
30973;DHT22;25423;45.624;13.790;2022-10-26T04:21:44;16.70;99.90
30973;DHT22;25423;45.624;13.790;2022-10-26T04:24:10;16.70;99.90
30973;DHT22;25423;45.624;13.790;2022-10-26T04:26:36;16.70;99.90
30973;DHT22;25423;45.624;13.790;2022-10-26T04:29:02;16.60;99.90
30973;DHT22;25423;45.624;13.790;2022-10-26T04:31:31;16.60;99.90
30973;DHT22;25423;45.624;13.790;2022-10-26T04:33:57;16.70;99.90
30973;DHT22;25423;45.624;13.790;2022-10-26T04:36:22;16.60;99.90
30973;DHT22;25423;45.624;13.790;2022-10-26T04:38:48;16.60;99.90
30973;DHT22;25423;45.624;13.790;2022-10-26T04:41:14;16.70;99.90
30973;DHT22;25423;45.624;13.790;2022-10-26T04:43:40;16.70;99.90
30973;DHT22;25423;45.624;13.790;2022-10-26T04:46:06;16.60;99.90
30973;DHT22;25423;45.624;13.790;2022-10-26T04:48:31;16.70;99.90
30973;DHT22;25423;45.624;13.790;2022-10-26T04:50:58;16.70;99.90
30973;DHT22;25423;45.624;13.790;2022-10-26T04:53:24;16.80;99.90
30973;DHT22;25423;45.624;13.790;2022-10-26T04:55:54;16.70;99.90
30973;DHT22;25423;45.624;13.790;2022-10-26T04:58:20;16.70;99.90
30973;DHT22;25423;45.624;13.790;2022-10-26T05:00:46;16.80;99.90
30973;DHT22;25423;45.624;13.790;2022-10-26T05:03:11;16.70;99.90
30973;DHT22;25423;45.624;13.790;2022-10-26T05:05:37;16.70;99.90
30973;DHT22;25423;45.624;13.790;2022-10-26T05:08:03;16.60;99.90
30973;DHT22;25423;45.624;13.790;2022-10-26T05:10:29;16.60;99.90
30973;DHT22;25423;45.624;13.790;2022-10-26T05:12:55;16.60;99.90
30973;DHT22;25423;45.624;13.790;2022-10-26T05:15:21;16.60;99.90
30973;DHT22;25423;45.624;13.790;2022-10-26T05:17:53;16.60;99.90
30973;DHT22;25423;45.624;13.790;2022-10-26T05:20:19;16.60;99.90
30973;DHT22;25423;45.624;13.790;2022-10-26T05:22:51;16.60;99.90
30973;DHT22;25423;45.624;13.790;2022-10-26T05:25:16;16.60;99.90
30973;DHT22;25423;45.624;13.790;2022-10-26T05:27:42;16.60;99.90
30973;DHT22;25423;45.624;13.790;2022-10-26T05:30:08;16.60;99.90
30973;DHT22;25423;45.624;13.790;2022-10-26T05:32:34;16.60;99.90
30973;DHT22;25423;45.624;13.790;2022-10-26T05:34:59;16.60;99.90
30973;DHT22;25423;45.624;13.790;2022-10-26T05:37:28;16.60;99.90
30973;DHT22;25423;45.624;13.790;2022-10-26T05:39:54;16.60;99.90
30973;DHT22;25423;45.624;13.790;2022-10-26T05:42:20;16.60;99.90
30973;DHT22;25423;45.624;13.790;2022-10-26T05:44:45;16.60;99.90
30973;DHT22;25423;45.624;13.790;2022-10-26T05:47:11;16.50;99.90
30973;DHT22;25423;45.624;13.790;2022-10-26T05:49:37;16.50;99.90
30973;DHT22;25423;45.624;13.790;2022-10-26T05:52:03;16.60;99.90
30973;DHT22;25423;45.624;13.790;2022-10-26T05:54:29;16.60;99.90
30973;DHT22;25423;45.624;13.790;2022-10-26T05:56:54;16.60;99.90
30973;DHT22;25423;45.624;13.790;2022-10-26T05:59:21;16.60;99.90
30973;DHT22;25423;45.624;13.790;2022-10-26T06:06:48;16.60;99.90
30973;DHT22;25423;45.624;13.790;2022-10-26T06:09:17;16.70;99.90
30973;DHT22;25423;45.624;13.790;2022-10-26T06:11:43;16.70;99.90
30973;DHT22;25423;45.624;13.790;2022-10-26T06:14:09;16.80;99.90
30973;DHT22;25423;45.624;13.790;2022-10-26T06:24:40;17.10;99.90
30973;DHT22;25423;45.624;13.790;2022-10-26T06:30:10;17.10;99.90
30973;DHT22;25423;45.624;13.790;2022-10-26T06:32:37;17.10;99.90
30973;DHT22;25423;45.624;13.790;2022-10-26T06:35:46;17.20;99.90
30973;DHT22;25423;45.624;13.790;2022-10-26T06:37:53;17.20;99.90
30973;DHT22;25423;45.624;13.790;2022-10-26T06:40:20;17.20;99.90
30973;DHT22;25423;45.624;13.790;2022-10-26T06:42:45;17.10;99.90
30973;DHT22;25423;45.624;13.790;2022-10-26T06:45:15;17.20;99.90
30973;DHT22;25423;45.624;13.790;2022-10-26T06:52:34;17.20;99.90
30973;DHT22;25423;45.624;13.790;2022-10-26T06:55:02;17.10;99.90
30973;DHT22;25423;45.624;13.790;2022-10-26T06:57:35;17.20;99.90
30973;DHT22;25423;45.624;13.790;2022-10-26T07:02:28;17.40;99.90
30973;DHT22;25423;45.624;13.790;2022-10-26T07:04:53;17.30;99.90
30973;DHT22;25423;45.624;13.790;2022-10-26T07:07:20;17.30;99.90
30973;DHT22;25423;45.624;13.790;2022-10-26T07:09:53;17.40;99.90
30973;DHT22;25423;45.624;13.790;2022-10-26T07:12:21;17.50;99.90
30973;DHT22;25423;45.624;13.790;2022-10-26T07:14:50;17.50;99.90
30973;DHT22;25423;45.624;13.790;2022-10-26T07:17:16;17.70;99.90
30973;DHT22;25423;45.624;13.790;2022-10-26T07:19:41;17.60;99.90
30973;DHT22;25423;45.624;13.790;2022-10-26T07:22:10;17.70;99.90
30973;DHT22;25423;45.624;13.790;2022-10-26T07:24:36;17.70;99.90
30973;DHT22;25423;45.624;13.790;2022-10-26T07:27:02;17.60;99.90
30973;DHT22;25423;45.624;13.790;2022-10-26T07:29:28;17.60;99.90
30973;DHT22;25423;45.624;13.790;2022-10-26T07:31:56;17.70;99.90
30973;DHT22;25423;45.624;13.790;2022-10-26T07:34:22;17.70;99.90
30973;DHT22;25423;45.624;13.790;2022-10-26T07:36:47;17.80;99.90
30973;DHT22;25423;45.624;13.790;2022-10-26T07:39:13;17.90;99.90
30973;DHT22;25423;45.624;13.790;2022-10-26T07:41:39;18.00;99.90
30973;DHT22;25423;45.624;13.790;2022-10-26T07:44:04;18.00;99.90
30973;DHT22;25423;45.624;13.790;2022-10-26T07:46:30;18.00;99.90
30973;DHT22;25423;45.624;13.790;2022-10-26T07:48:56;18.00;99.90
30973;DHT22;25423;45.624;13.790;2022-10-26T07:51:22;18.10;99.90
30973;DHT22;25423;45.624;13.790;2022-10-26T07:53:47;18.00;99.90
30973;DHT22;25423;45.624;13.790;2022-10-26T07:56:13;18.20;99.90
30973;DHT22;25423;45.624;13.790;2022-10-26T07:58:41;18.30;99.90
30973;DHT22;25423;45.624;13.790;2022-10-26T08:01:07;18.30;99.90
30973;DHT22;25423;45.624;13.790;2022-10-26T08:03:33;18.40;99.90
30973;DHT22;25423;45.624;13.790;2022-10-26T08:05:59;18.60;99.90
30973;DHT22;25423;45.624;13.790;2022-10-26T08:08:25;18.70;99.90
30973;DHT22;25423;45.624;13.790;2022-10-26T08:10:51;18.70;99.90
30973;DHT22;25423;45.624;13.790;2022-10-26T08:13:17;18.70;99.90
30973;DHT22;25423;45.624;13.790;2022-10-26T08:15:43;18.70;99.90
30973;DHT22;25423;45.624;13.790;2022-10-26T08:18:09;18.80;99.90
30973;DHT22;25423;45.624;13.790;2022-10-26T08:20:35;18.80;99.90
30973;DHT22;25423;45.624;13.790;2022-10-26T08:23:00;18.70;99.90
30973;DHT22;25423;45.624;13.790;2022-10-26T08:25:30;18.70;99.90
30973;DHT22;25423;45.624;13.790;2022-10-26T08:27:59;18.80;99.90
30973;DHT22;25423;45.624;13.790;2022-10-26T08:30:29;18.80;99.90
30973;DHT22;25423;45.624;13.790;2022-10-26T08:33:06;18.90;99.90
30973;DHT22;25423;45.624;13.790;2022-10-26T08:35:32;19.00;99.90
30973;DHT22;25423;45.624;13.790;2022-10-26T08:38:01;19.00;99.90
30973;DHT22;25423;45.624;13.790;2022-10-26T08:40:29;19.10;99.90
30973;DHT22;25423;45.624;13.790;2022-10-26T08:43:09;19.20;99.90
30973;DHT22;25423;45.624;13.790;2022-10-26T08:45:40;19.40;99.90
30973;DHT22;25423;45.624;13.790;2022-10-26T08:48:11;19.60;99.90
30973;DHT22;25423;45.624;13.790;2022-10-26T08:50:42;19.80;99.90
30973;DHT22;25423;45.624;13.790;2022-10-26T08:53:17;20.00;99.90
30973;DHT22;25423;45.624;13.790;2022-10-26T08:55:46;20.10;99.90
30973;DHT22;25423;45.624;13.790;2022-10-26T08:58:13;20.10;99.90
30973;DHT22;25423;45.624;13.790;2022-10-26T09:00:39;20.30;99.90
30973;DHT22;25423;45.624;13.790;2022-10-26T09:03:11;20.40;99.90
30973;DHT22;25423;45.624;13.790;2022-10-26T09:05:38;20.60;99.90
30973;DHT22;25423;45.624;13.790;2022-10-26T09:08:28;20.70;99.90
30973;DHT22;25423;45.624;13.790;2022-10-26T09:11:07;20.80;99.90
30973;DHT22;25423;45.624;13.790;2022-10-26T09:16:37;21.10;99.90
30973;DHT22;25423;45.624;13.790;2022-10-26T09:22:05;21.30;99.90
30973;DHT22;25423;45.624;13.790;2022-10-26T09:24:32;21.30;99.90
30973;DHT22;25423;45.624;13.790;2022-10-26T09:27:11;21.40;99.90
30973;DHT22;25423;45.624;13.790;2022-10-26T09:29:42;21.40;99.90
30973;DHT22;25423;45.624;13.790;2022-10-26T09:32:16;21.50;99.90
30973;DHT22;25423;45.624;13.790;2022-10-26T09:34:52;21.70;99.90
30973;DHT22;25423;45.624;13.790;2022-10-26T09:37:33;21.80;99.90
30973;DHT22;25423;45.624;13.790;2022-10-26T09:40:10;21.80;99.90
30973;DHT22;25423;45.624;13.790;2022-10-26T09:42:42;21.70;99.90
30973;DHT22;25423;45.624;13.790;2022-10-26T09:45:12;21.60;99.90
30973;DHT22;25423;45.624;13.790;2022-10-26T09:47:41;21.40;99.90
30973;DHT22;25423;45.624;13.790;2022-10-26T09:52:34;21.40;99.90
30973;DHT22;25423;45.624;13.790;2022-10-26T09:54:59;21.40;99.90
30973;DHT22;25423;45.624;13.790;2022-10-26T09:57:25;21.30;99.90
30973;DHT22;25423;45.624;13.790;2022-10-26T09:59:51;21.20;99.90
30973;DHT22;25423;45.624;13.790;2022-10-26T10:04:58;21.00;99.90
30973;DHT22;25423;45.624;13.790;2022-10-26T10:07:24;20.80;99.90
30973;DHT22;25423;45.624;13.790;2022-10-26T10:10:06;20.80;99.90
30973;DHT22;25423;45.624;13.790;2022-10-26T10:12:32;20.60;99.90
30973;DHT22;25423;45.624;13.790;2022-10-26T10:14:58;20.60;99.90
30973;DHT22;25423;45.624;13.790;2022-10-26T10:17:24;20.50;99.90
30973;DHT22;25423;45.624;13.790;2022-10-26T10:19:50;20.30;99.90
30973;DHT22;25423;45.624;13.790;2022-10-26T10:22:20;20.40;99.90
30973;DHT22;25423;45.624;13.790;2022-10-26T10:24:55;20.40;99.90
30973;DHT22;25423;45.624;13.790;2022-10-26T10:27:21;20.40;99.90
30973;DHT22;25423;45.624;13.790;2022-10-26T10:32:18;20.60;99.90
30973;DHT22;25423;45.624;13.790;2022-10-26T10:34:48;20.60;99.90
30973;DHT22;25423;45.624;13.790;2022-10-26T10:37:23;20.60;99.90
30973;DHT22;25423;45.624;13.790;2022-10-26T10:39:54;20.60;99.90
30973;DHT22;25423;45.624;13.790;2022-10-26T10:42:21;20.60;99.90
30973;DHT22;25423;45.624;13.790;2022-10-26T10:44:51;20.60;99.90
30973;DHT22;25423;45.624;13.790;2022-10-26T10:47:18;20.60;99.90
30973;DHT22;25423;45.624;13.790;2022-10-26T10:50:18;20.60;99.90
30973;DHT22;25423;45.624;13.790;2022-10-26T10:52:37;20.70;99.90
30973;DHT22;25423;45.624;13.790;2022-10-26T10:55:13;20.80;99.90
30973;DHT22;25423;45.624;13.790;2022-10-26T11:00:21;20.70;99.90
30973;DHT22;25423;45.624;13.790;2022-10-26T11:11:08;20.80;99.90
30973;DHT22;25423;45.624;13.790;2022-10-26T11:16:14;20.70;99.90
30973;DHT22;25423;45.624;13.790;2022-10-26T11:18:47;20.80;99.90
30973;DHT22;25423;45.624;13.790;2022-10-26T11:21:33;20.80;99.90
30973;DHT22;25423;45.624;13.790;2022-10-26T11:24:17;20.80;99.90
30973;DHT22;25423;45.624;13.790;2022-10-26T11:26:48;20.80;99.90
30973;DHT22;25423;45.624;13.790;2022-10-26T11:29:28;20.80;99.90
30973;DHT22;25423;45.624;13.790;2022-10-26T11:31:57;20.70;99.90
30973;DHT22;25423;45.624;13.790;2022-10-26T11:34:39;20.80;99.90
30973;DHT22;25423;45.624;13.790;2022-10-26T11:37:12;20.70;99.90
30973;DHT22;25423;45.624;13.790;2022-10-26T11:39:50;20.70;99.90
30973;DHT22;25423;45.624;13.790;2022-10-26T11:44:58;20.70;99.90
30973;DHT22;25423;45.624;13.790;2022-10-26T11:48:01;20.70;99.90
30973;DHT22;25423;45.624;13.790;2022-10-26T11:50:21;20.70;99.90
30973;DHT22;25423;45.624;13.790;2022-10-26T11:52:50;20.70;99.90
30973;DHT22;25423;45.624;13.790;2022-10-26T11:55:18;20.70;99.90
30973;DHT22;25423;45.624;13.790;2022-10-26T11:57:44;20.70;99.90
30973;DHT22;25423;45.624;13.790;2022-10-26T12:02:38;20.70;99.90
30973;DHT22;25423;45.624;13.790;2022-10-26T12:05:06;20.80;99.90
30973;DHT22;25423;45.624;13.790;2022-10-26T12:07:34;20.90;99.90
30973;DHT22;25423;45.624;13.790;2022-10-26T12:10:01;21.00;99.90
30973;DHT22;25423;45.624;13.790;2022-10-26T12:17:36;21.10;99.90
30973;DHT22;25423;45.624;13.790;2022-10-26T12:22:52;21.10;99.90
30973;DHT22;25423;45.624;13.790;2022-10-26T12:25:19;21.10;99.90
30973;DHT22;25423;45.624;13.790;2022-10-26T12:37:52;21.00;99.90
30973;DHT22;25423;45.624;13.790;2022-10-26T12:42:57;21.00;99.90
30973;DHT22;25423;45.624;13.790;2022-10-26T12:45:23;21.10;99.90
30973;DHT22;25423;45.624;13.790;2022-10-26T12:52:55;21.10;99.90
30973;DHT22;25423;45.624;13.790;2022-10-26T12:55:35;21.10;99.90
30973;DHT22;25423;45.624;13.790;2022-10-26T12:58:08;21.00;99.90
30973;DHT22;25423;45.624;13.790;2022-10-26T13:00:46;21.10;99.90
30973;DHT22;25423;45.624;13.790;2022-10-26T13:03:23;21.00;99.90
30973;DHT22;25423;45.624;13.790;2022-10-26T13:06:01;21.00;99.90
30973;DHT22;25423;45.624;13.790;2022-10-26T13:08:39;21.00;99.90
30973;DHT22;25423;45.624;13.790;2022-10-26T13:11:15;21.10;99.90
30973;DHT22;25423;45.624;13.790;2022-10-26T13:13:42;21.10;99.90
30973;DHT22;25423;45.624;13.790;2022-10-26T13:16:11;21.00;99.90
30973;DHT22;25423;45.624;13.790;2022-10-26T13:18:43;21.00;99.90
30973;DHT22;25423;45.624;13.790;2022-10-26T13:21:13;21.00;99.90
30973;DHT22;25423;45.624;13.790;2022-10-26T13:24:00;21.00;99.90
30973;DHT22;25423;45.624;13.790;2022-10-26T13:26:30;20.80;99.90
30973;DHT22;25423;45.624;13.790;2022-10-26T13:28:57;20.90;99.90
30973;DHT22;25423;45.624;13.790;2022-10-26T13:36:35;20.90;99.90
30973;DHT22;25423;45.624;13.790;2022-10-26T13:39:05;20.90;99.90
30973;DHT22;25423;45.624;13.790;2022-10-26T13:41:37;20.90;99.90
30973;DHT22;25423;45.624;13.790;2022-10-26T13:44:04;20.90;99.90
30973;DHT22;25423;45.624;13.790;2022-10-26T13:46:31;20.80;99.90
30973;DHT22;25423;45.624;13.790;2022-10-26T13:49:06;20.70;99.90
30973;DHT22;25423;45.624;13.790;2022-10-26T13:51:40;20.70;99.90
30973;DHT22;25423;45.624;13.790;2022-10-26T13:55:08;20.60;99.90
30973;DHT22;25423;45.624;13.790;2022-10-26T13:57:16;20.70;99.90
30973;DHT22;25423;45.624;13.790;2022-10-26T13:59:44;20.80;99.90
30973;DHT22;25423;45.624;13.790;2022-10-26T14:05:04;21.00;99.90
30973;DHT22;25423;45.624;13.790;2022-10-26T14:07:35;20.90;99.90
30973;DHT22;25423;45.624;13.790;2022-10-26T14:10:02;21.00;99.90
30973;DHT22;25423;45.624;13.790;2022-10-26T14:12:32;21.00;99.90
30973;DHT22;25423;45.624;13.790;2022-10-26T14:15:02;21.00;99.90
30973;DHT22;25423;45.624;13.790;2022-10-26T14:17:30;21.10;99.90
30973;DHT22;25423;45.624;13.790;2022-10-26T14:19:56;21.10;99.90
30973;DHT22;25423;45.624;13.790;2022-10-26T14:22:23;21.10;99.90
30973;DHT22;25423;45.624;13.790;2022-10-26T14:24:58;21.10;99.90
30973;DHT22;25423;45.624;13.790;2022-10-26T14:27:25;21.10;99.90
30973;DHT22;25423;45.624;13.790;2022-10-26T14:29:52;21.20;99.90
30973;DHT22;25423;45.624;13.790;2022-10-26T14:32:27;21.10;99.90
30973;DHT22;25423;45.624;13.790;2022-10-26T14:34:56;21.10;99.90
30973;DHT22;25423;45.624;13.790;2022-10-26T14:40:32;21.20;99.90
30973;DHT22;25423;45.624;13.790;2022-10-26T14:43:00;21.20;99.90
30973;DHT22;25423;45.624;13.790;2022-10-26T14:45:35;21.20;99.90
30973;DHT22;25423;45.624;13.790;2022-10-26T14:48:05;21.30;99.90
30973;DHT22;25423;45.624;13.790;2022-10-26T14:50:36;21.20;99.90
30973;DHT22;25423;45.624;13.790;2022-10-26T14:55:28;21.20;99.90
30973;DHT22;25423;45.624;13.790;2022-10-26T14:58:12;21.10;99.90
30973;DHT22;25423;45.624;13.790;2022-10-26T15:01:12;21.20;99.90
30973;DHT22;25423;45.624;13.790;2022-10-26T15:03:33;21.20;99.90
30973;DHT22;25423;45.624;13.790;2022-10-26T15:06:20;21.30;99.90
30973;DHT22;25423;45.624;13.790;2022-10-26T15:08:45;21.20;99.90
30973;DHT22;25423;45.624;13.790;2022-10-26T15:11:17;21.10;99.90
30973;DHT22;25423;45.624;13.790;2022-10-26T15:13:43;21.00;99.90
30973;DHT22;25423;45.624;13.790;2022-10-26T15:16:17;21.00;99.90
30973;DHT22;25423;45.624;13.790;2022-10-26T15:18:47;20.90;99.90
30973;DHT22;25423;45.624;13.790;2022-10-26T15:21:22;20.90;99.90
30973;DHT22;25423;45.624;13.790;2022-10-26T15:23:52;20.80;99.90
30973;DHT22;25423;45.624;13.790;2022-10-26T15:26:22;20.70;99.90
30973;DHT22;25423;45.624;13.790;2022-10-26T15:28:48;20.70;99.90
30973;DHT22;25423;45.624;13.790;2022-10-26T15:36:13;20.70;99.90
30973;DHT22;25423;45.624;13.790;2022-10-26T15:38:45;20.70;99.90
30973;DHT22;25423;45.624;13.790;2022-10-26T15:41:18;20.60;99.90
30973;DHT22;25423;45.624;13.790;2022-10-26T15:43:49;20.50;99.90
30973;DHT22;25423;45.624;13.790;2022-10-26T15:46:20;20.40;99.90
30973;DHT22;25423;45.624;13.790;2022-10-26T15:48:48;20.30;99.90
30973;DHT22;25423;45.624;13.790;2022-10-26T15:51:14;20.20;99.90
30973;DHT22;25423;45.624;13.790;2022-10-26T15:53:40;20.10;99.90
30973;DHT22;25423;45.624;13.790;2022-10-26T15:56:12;20.00;99.90
30973;DHT22;25423;45.624;13.790;2022-10-26T15:58:39;19.90;99.90
30973;DHT22;25423;45.624;13.790;2022-10-26T16:01:12;19.90;99.90
30973;DHT22;25423;45.624;13.790;2022-10-26T16:03:38;19.80;99.90
30973;DHT22;25423;45.624;13.790;2022-10-26T16:06:04;19.80;99.90
30973;DHT22;25423;45.624;13.790;2022-10-26T16:08:33;19.80;99.90
30973;DHT22;25423;45.624;13.790;2022-10-26T16:11:07;19.70;99.90
30973;DHT22;25423;45.624;13.790;2022-10-26T16:13:33;19.60;99.90
30973;DHT22;25423;45.624;13.790;2022-10-26T16:15:59;19.60;99.90
30973;DHT22;25423;45.624;13.790;2022-10-26T16:18:25;19.70;99.90
30973;DHT22;25423;45.624;13.790;2022-10-26T16:21:00;19.60;99.90
30973;DHT22;25423;45.624;13.790;2022-10-26T16:23:26;19.50;99.90
30973;DHT22;25423;45.624;13.790;2022-10-26T16:25:54;19.50;99.90
30973;DHT22;25423;45.624;13.790;2022-10-26T16:28:20;19.50;99.90
30973;DHT22;25423;45.624;13.790;2022-10-26T16:30:48;19.40;99.90
30973;DHT22;25423;45.624;13.790;2022-10-26T16:33:14;19.30;99.90
30973;DHT22;25423;45.624;13.790;2022-10-26T16:35:39;19.10;99.90
30973;DHT22;25423;45.624;13.790;2022-10-26T16:38:06;19.00;99.90
30973;DHT22;25423;45.624;13.790;2022-10-26T16:40:31;18.90;99.90
30973;DHT22;25423;45.624;13.790;2022-10-26T16:42:57;19.00;99.90
30973;DHT22;25423;45.624;13.790;2022-10-26T16:45:23;19.10;99.90
30973;DHT22;25423;45.624;13.790;2022-10-26T16:47:48;19.50;99.90
30973;DHT22;25423;45.624;13.790;2022-10-26T16:50:14;19.50;99.90
30973;DHT22;25423;45.624;13.790;2022-10-26T16:52:40;19.30;99.90
30973;DHT22;25423;45.624;13.790;2022-10-26T16:55:06;19.20;99.90
30973;DHT22;25423;45.624;13.790;2022-10-26T16:57:33;19.10;99.90
30973;DHT22;25423;45.624;13.790;2022-10-26T16:59:59;19.10;99.90
30973;DHT22;25423;45.624;13.790;2022-10-26T17:02:27;19.00;99.90
30973;DHT22;25423;45.624;13.790;2022-10-26T17:04:58;19.00;99.90
30973;DHT22;25423;45.624;13.790;2022-10-26T17:07:46;18.90;99.90
30973;DHT22;25423;45.624;13.790;2022-10-26T17:10:35;18.90;99.90
30973;DHT22;25423;45.624;13.790;2022-10-26T17:13:04;18.90;99.90
30973;DHT22;25423;45.624;13.790;2022-10-26T17:15:44;18.90;99.90
30973;DHT22;25423;45.624;13.790;2022-10-26T17:18:16;18.90;99.90
30973;DHT22;25423;45.624;13.790;2022-10-26T17:20:47;18.90;99.90
30973;DHT22;25423;45.624;13.790;2022-10-26T17:23:13;18.80;99.90
30973;DHT22;25423;45.624;13.790;2022-10-26T17:25:39;18.80;99.90